createdAt,value
2023-02-13T00:04:08.131Z,195.50
2023-02-13T00:09:11.206Z,170.60
2023-02-13T00:14:13.310Z,148.90
2023-02-13T00:19:15.088Z,158.30
2023-02-13T00:24:16.829Z,149.20
2023-02-13T00:29:18.502Z,161.40
2023-02-13T00:34:25.421Z,140.00
2023-02-13T00:39:27.153Z,126.10
2023-02-13T00:44:28.831Z,132.60
2023-02-13T00:49:30.502Z,98.90
2023-02-13T00:54:32.133Z,150.10
2023-02-13T00:59:33.829Z,131.80
2023-02-13T01:04:35.616Z,141.30
2023-02-13T01:09:37.344Z,134.40
2023-02-13T01:14:39.027Z,151.40
2023-02-13T01:19:41.428Z,141.40
2023-02-13T01:24:43.295Z,119.10
2023-02-13T01:29:44.961Z,119.60
2023-02-13T01:34:46.736Z,107.00
2023-02-13T01:39:48.876Z,130.40
2023-02-13T01:44:59.229Z,112.30
2023-02-13T01:50:11.277Z,102.40
2023-02-13T01:55:14.456Z,112.60
2023-02-13T02:00:17.664Z,126.90
2023-02-13T02:05:23.403Z,105.10
2023-02-13T02:10:25.563Z,94.70
2023-02-13T02:15:27.619Z,100.50
2023-02-13T02:21:01.020Z,104.30
2023-02-13T02:26:34.600Z,107.90
2023-02-13T02:31:57.435Z,107.90
2023-02-13T02:37:13.041Z,92.70
2023-02-13T02:42:17.861Z,72.10
2023-02-13T02:48:02.829Z,103.60
2023-02-13T02:53:24.472Z,84.80
2023-02-13T02:58:56.877Z,83.80
2023-02-13T03:04:20.564Z,84.00
2023-02-13T03:09:46.388Z,106.00
2023-02-13T03:14:48.797Z,93.30
2023-02-13T03:20:37.631Z,83.70
2023-02-13T03:26:03.630Z,77.50
2023-02-13T03:31:05.345Z,103.90
2023-02-13T03:36:31.956Z,81.70
2023-02-13T03:41:55.117Z,71.10
2023-02-13T03:47:00.787Z,63.10
2023-02-13T03:52:09.602Z,75.10
2023-02-13T03:57:34.388Z,71.30
2023-02-13T04:02:40.546Z,69.50
2023-02-13T04:07:42.660Z,68.80
2023-02-13T04:12:59.811Z,69.50
2023-02-13T04:23:22.037Z,72.40
2023-02-13T04:28:23.836Z,64.50
2023-02-13T04:33:25.647Z,66.10
2023-02-13T04:38:27.447Z,98.00
2023-02-13T04:43:29.213Z,67.20
2023-02-13T04:48:31.114Z,77.40
2023-02-13T04:53:32.939Z,49.00
2023-02-13T04:58:34.761Z,46.50
2023-02-13T05:03:36.445Z,65.10
2023-02-13T05:08:38.111Z,57.80
2023-02-13T05:13:39.844Z,64.20
2023-02-13T05:18:41.552Z,63.40
2023-02-13T05:23:43.187Z,56.70
2023-02-13T05:29:03.514Z,71.70
2023-02-13T05:34:05.321Z,50.60
2023-02-13T05:39:07.937Z,50.10
2023-02-13T05:44:10.537Z,45.30
2023-02-13T05:49:14.091Z,60.70
2023-02-13T05:54:15.829Z,55.10
2023-02-13T05:59:17.676Z,52.10
2023-02-13T06:04:19.439Z,43.00
2023-02-13T06:09:21.818Z,45.40
2023-02-13T06:14:23.559Z,56.30
2023-02-13T06:19:25.307Z,59.60
2023-02-13T06:24:27.180Z,57.30
2023-02-13T06:29:28.991Z,56.40
2023-02-13T06:34:30.821Z,52.60
2023-02-13T06:39:32.479Z,108.00
2023-02-13T06:44:34.299Z,86.60
2023-02-13T06:49:35.985Z,68.90
2023-02-13T06:54:47.406Z,49.50
2023-02-13T06:59:49.612Z,69.80
2023-02-13T07:04:51.405Z,92.20
2023-02-13T07:09:53.089Z,61.60
2023-02-13T07:14:54.768Z,70.30
2023-02-13T07:19:56.413Z,51.10
2023-02-13T07:24:59.051Z,51.30
2023-02-13T07:30:00.711Z,51.30
2023-02-13T07:35:03.042Z,52.20
2023-02-13T07:40:06.580Z,53.00
2023-02-13T07:45:09.128Z,134.00
2023-02-13T07:50:11.642Z,58.40
2023-02-13T07:55:13.313Z,41.00
2023-02-13T08:00:15.627Z,43.50
2023-02-13T08:05:17.535Z,45.20
2023-02-13T08:10:38.772Z,59.40
2023-02-13T08:15:40.787Z,43.30
2023-02-13T08:20:42.479Z,37.60
2023-02-13T08:25:44.250Z,35.80
2023-02-13T08:30:45.998Z,35.80
2023-02-13T08:35:48.051Z,34.00
2023-02-13T08:40:49.803Z,36.80
2023-02-13T08:45:51.488Z,35.20
2023-02-13T08:50:53.406Z,31.10
2023-02-13T08:55:57.393Z,32.90
2023-02-13T09:00:59.567Z,39.00
2023-02-13T09:06:02.619Z,43.60
2023-02-13T09:11:06.573Z,43.60
2023-02-13T09:16:08.520Z,36.30
2023-02-13T09:21:12.936Z,43.60
2023-02-13T09:26:16.055Z,36.80
2023-02-13T09:31:20.762Z,43.20
2023-02-13T09:36:24.588Z,30.80
2023-02-13T09:41:45.200Z,28.60
2023-02-13T09:46:47.225Z,31.20
2023-02-13T09:51:56.287Z,35.90
2023-02-13T09:57:07.516Z,37.00
2023-02-13T10:02:34.109Z,42.70
2023-02-13T10:07:59.349Z,37.50
2023-02-13T10:13:23.587Z,39.30
2023-02-13T10:18:38.192Z,42.90
2023-02-13T10:23:51.346Z,41.30
2023-02-13T10:29:23.381Z,29.60
2023-02-13T10:34:28.769Z,28.00
2023-02-13T10:39:31.782Z,31.70
2023-02-13T10:44:41.766Z,27.90
2023-02-13T10:50:25.039Z,28.80
2023-02-13T10:55:36.505Z,24.10
2023-02-13T11:01:00.325Z,24.60
2023-02-13T11:06:07.963Z,28.30
2023-02-13T11:11:32.852Z,21.90
2023-02-13T11:16:46.464Z,17.30
2023-02-13T11:21:54.775Z,18.10
2023-02-13T11:27:08.715Z,20.60
2023-02-13T11:32:22.500Z,14.30
2023-02-13T11:37:31.594Z,16.90
2023-02-13T11:42:37.192Z,15.60
2023-02-13T11:47:42.113Z,18.20
2023-02-13T11:52:51.964Z,16.20
2023-02-13T11:58:02.763Z,19.70
2023-02-13T12:03:26.425Z,19.80
2023-02-13T12:08:30.106Z,18.90
2023-02-13T12:13:37.617Z,17.90
2023-02-13T12:18:47.478Z,21.00
2023-02-13T12:24:04.489Z,18.00
2023-02-13T12:29:18.136Z,17.30
2023-02-13T12:34:41.335Z,16.30
2023-02-13T12:40:24.707Z,21.90
2023-02-13T12:45:29.174Z,22.50
2023-02-13T12:51:02.229Z,25.30
2023-02-13T12:56:23.996Z,21.80
2023-02-13T13:01:51.344Z,23.60
2023-02-13T13:07:05.919Z,20.30
2023-02-13T13:12:48.347Z,22.90
2023-02-13T13:18:05.156Z,29.90
2023-02-13T13:23:29.829Z,28.10
2023-02-13T13:28:40.569Z,16.60
2023-02-13T13:33:46.081Z,28.80
2023-02-13T13:39:09.852Z,19.00
2023-02-13T13:44:33.787Z,26.60
2023-02-13T13:49:52.760Z,20.90
2023-02-13T13:54:57.643Z,22.50
2023-02-13T14:00:23.860Z,16.00
2023-02-13T14:05:30.905Z,14.70
2023-02-13T14:10:32.521Z,9.10
2023-02-13T14:15:34.244Z,14.00
2023-02-13T14:20:52.568Z,7.30
2023-02-13T14:26:33.196Z,13.50
2023-02-13T14:31:42.213Z,15.50
2023-02-13T14:37:00.281Z,14.40
2023-02-13T14:42:04.294Z,9.30
2023-02-13T14:47:20.094Z,8.40
2023-02-13T14:52:28.868Z,9.60
2023-02-13T14:57:37.923Z,10.90
2023-02-13T15:02:49.494Z,7.30
2023-02-13T15:07:59.039Z,10.40
2023-02-13T15:13:02.423Z,11.30
2023-02-13T15:18:09.947Z,10.90
2023-02-13T15:23:26.635Z,8.00
2023-02-13T15:28:29.470Z,9.10
2023-02-13T15:33:43.994Z,10.30
2023-02-13T15:38:46.523Z,11.90
2023-02-13T15:43:56.091Z,17.50
2023-02-13T15:49:00.084Z,15.40
2023-02-13T15:54:20.997Z,11.90
2023-02-13T15:59:25.107Z,25.90
2023-02-13T16:04:28.225Z,21.50
2023-02-13T16:09:31.374Z,19.50
2023-02-13T16:14:44.621Z,13.90
2023-02-13T16:20:15.493Z,19.80
2023-02-13T16:25:30.970Z,19.30
2023-02-13T16:31:05.112Z,16.40
2023-02-13T16:36:29.347Z,17.50
2023-02-13T16:41:33.561Z,20.20
2023-02-13T16:46:41.141Z,17.70
2023-02-13T16:52:26.749Z,17.60
2023-02-13T16:57:32.114Z,14.20
2023-02-13T17:02:39.902Z,21.60
2023-02-13T17:07:45.068Z,20.00
2023-02-13T17:12:48.153Z,32.20
2023-02-13T17:17:56.661Z,48.00
2023-02-13T17:23:00.998Z,41.10
2023-02-13T17:33:23.544Z,67.90
2023-02-13T17:38:25.212Z,54.10
2023-02-13T17:43:28.001Z,48.20
2023-02-13T17:48:30.016Z,35.30
2023-02-13T17:53:31.950Z,40.00
2023-02-13T17:58:33.755Z,25.50
2023-02-13T18:03:35.551Z,32.90
2023-02-13T18:08:37.266Z,24.40
2023-02-13T18:13:40.880Z,26.90
2023-02-13T18:18:42.592Z,27.50
2023-02-13T18:23:44.374Z,27.70
2023-02-13T18:28:46.205Z,24.00
2023-02-13T18:33:47.885Z,34.80
2023-02-13T18:38:51.279Z,29.90
2023-02-13T18:43:57.033Z,32.70
2023-02-13T18:48:59.094Z,22.20
2023-02-13T18:54:01.181Z,19.80
2023-02-13T18:59:02.835Z,23.90
2023-02-13T19:04:05.849Z,25.30
2023-02-13T19:09:07.859Z,23.00
2023-02-13T19:14:14.487Z,26.10
2023-02-13T19:19:17.733Z,24.90
2023-02-13T19:24:20.114Z,23.90
2023-02-13T19:29:22.014Z,27.80
2023-02-13T19:34:23.755Z,27.70
2023-02-13T19:39:25.441Z,25.10
2023-02-13T19:44:30.324Z,27.30
2023-02-13T19:49:32.343Z,28.90
2023-02-13T19:54:34.308Z,35.30
2023-02-13T19:59:36.529Z,42.30
2023-02-13T20:04:39.492Z,43.00
2023-02-13T20:09:41.392Z,44.60
2023-02-13T20:14:43.440Z,47.40
2023-02-13T20:19:45.365Z,45.10
2023-02-13T20:24:47.481Z,44.80
2023-02-13T20:29:50.205Z,51.20
2023-02-13T20:34:59.409Z,59.40
2023-02-13T20:40:02.211Z,55.00
2023-02-13T20:45:04.735Z,56.60
2023-02-13T20:50:07.278Z,58.90
2023-02-13T20:55:09.299Z,59.90
2023-02-13T21:00:13.368Z,58.70
2023-02-13T21:05:15.039Z,60.80
2023-02-13T21:10:17.924Z,51.20
2023-02-13T21:15:19.570Z,57.80
2023-02-13T21:20:21.267Z,57.40
2023-02-13T21:25:22.920Z,64.10
2023-02-13T21:30:24.617Z,56.90
2023-02-13T21:35:26.361Z,63.90
2023-02-13T21:40:28.017Z,55.40
2023-02-13T21:45:34.692Z,54.20
2023-02-13T21:50:37.671Z,54.30
2023-02-13T21:55:39.323Z,65.50
2023-02-13T22:00:40.987Z,53.60
2023-02-13T22:05:46.669Z,55.70
2023-02-13T22:10:56.466Z,48.80
2023-02-13T22:16:09.275Z,58.10
2023-02-13T22:21:18.039Z,59.10
2023-02-13T22:26:21.214Z,48.70
2023-02-13T22:31:25.840Z,41.40
2023-02-13T22:36:27.801Z,41.70
2023-02-13T22:41:29.873Z,32.60
2023-02-13T22:46:32.992Z,31.60
2023-02-13T22:51:36.190Z,37.80
2023-02-13T22:56:37.871Z,29.30
2023-02-13T23:01:39.857Z,42.70
2023-02-13T23:06:41.571Z,38.20
2023-02-13T23:12:01.714Z,31.40
2023-02-13T23:17:22.157Z,35.40
2023-02-13T23:22:23.760Z,28.40
2023-02-13T23:27:25.384Z,28.90
2023-02-13T23:32:27.657Z,24.50
2023-02-13T23:37:29.344Z,30.50
2023-02-13T23:42:31.065Z,34.70
2023-02-13T23:47:32.828Z,33.90
2023-02-13T23:52:34.550Z,31.80
2023-02-13T23:57:36.316Z,31.50
